Time;durP1;ratioP1;P1;durP2;ratioP2;P2;SDS_P1;SDS_P2;PMS_P1;PMS_P2;Temp;Humidity;BMP_temperature;BMP_pressure;BME280_temperature;BME280_humidity;BME280_pressure;Samples;Min_cycle;Max_cycle;Signal;HPM_P1;HPM_P2
2021/05/02 00:02:29;;;;;;;6.05;3.20;;;;;;;-148.56;100.00;61375.16;4936414;28;20498;-29
2021/05/02 00:05:52;;;;;;;5.68;3.55;;;;;;;-148.56;100.00;61375.16;4945591;28;20055;-30
2021/05/02 00:09:16;;;;;;;4.90;3.08;;;;;;;-148.56;100.00;61375.16;4942976;28;20031;-27
2021/05/02 00:12:40;;;;;;;5.03;3.65;;;;;;;-148.56;100.00;61375.16;4945995;28;20046;-30
2021/05/02 00:16:05;;;;;;;4.45;3.00;;;;;;;-148.56;100.00;61375.16;4956108;28;20035;-26
2021/05/02 00:19:30;;;;;;;4.72;3.05;;;;;;;-148.56;100.00;61375.16;4932021;28;20031;-28
2021/05/02 00:22:55;;;;;;;5.47;3.00;;;;;;;-148.56;100.00;61375.16;4948406;28;20038;-28
2021/05/02 00:26:21;;;;;;;3.38;2.90;;;;;;;-148.56;100.00;61375.16;4948516;28;20513;-27
2021/05/02 00:29:47;;;;;;;4.40;3.10;;;;;;;-148.56;100.00;61375.16;4945265;28;20112;-27
2021/05/02 00:33:11;;;;;;;4.80;3.00;;;;;;;-148.56;100.00;61375.16;4950747;28;20721;-32
2021/05/02 00:36:35;;;;;;;4.97;3.00;;;;;;;-148.56;100.00;61375.16;4940608;28;20530;-29
2021/05/02 00:39:59;;;;;;;3.30;2.50;;;;;;;-148.56;100.00;61375.16;4941153;28;20058;-28
2021/05/02 00:43:26;;;;;;;5.30;3.22;;;;;;;-148.56;100.00;61375.16;4951431;28;20553;-28
2021/05/02 00:47:10;;;;;;;3.97;2.85;;;;;;;-148.56;100.00;61375.16;4942149;28;20082;-26
2021/05/02 00:50:38;;;;;;;3.60;2.80;;;;;;;-148.56;100.00;61375.16;4953938;28;20039;-28
2021/05/02 00:54:11;;;;;;;5.35;2.70;;;;;;;-148.56;100.00;61375.16;4947286;28;20023;-29
2021/05/02 00:57:58;;;;;;;4.50;3.00;;;;;;;-148.56;100.00;61375.16;4939693;28;20039;-32
2021/05/02 01:01:22;;;;;;;3.13;2.60;;;;;;;-148.56;100.00;61375.16;4936637;28;20070;-29
2021/05/02 01:04:46;;;;;;;3.95;2.90;;;;;;;-148.56;100.00;61375.16;4960196;28;20113;-28
2021/05/02 01:08:14;;;;;;;5.00;2.83;;;;;;;-148.56;100.00;61375.16;4948569;28;20037;-27
2021/05/02 01:11:39;;;;;;;3.58;2.78;;;;;;;-148.56;100.00;61375.16;4947838;28;20117;-24
2021/05/02 01:15:03;;;;;;;4.07;2.53;;;;;;;-148.56;100.00;61375.16;4953793;28;20027;-29
2021/05/02 01:18:27;;;;;;;4.10;2.70;;;;;;;-148.56;100.00;61375.16;4946409;28;20074;-30
2021/05/02 01:21:51;;;;;;;4.03;2.63;;;;;;;-148.56;100.00;61375.16;4944332;28;20070;-28
2021/05/02 01:25:15;;;;;;;4.13;2.75;;;;;;;-148.56;100.00;61375.16;4942261;28;20050;-30
2021/05/02 01:28:39;;;;;;;4.55;2.38;;;;;;;-148.56;100.00;61375.16;4945040;28;20038;-27
2021/05/02 01:32:03;;;;;;;3.13;2.40;;;;;;;-148.56;100.00;61375.16;4959342;28;20081;-31
2021/05/02 01:35:27;;;;;;;3.90;2.75;;;;;;;-148.56;100.00;61375.16;4942615;28;20034;-29
2021/05/02 01:38:51;;;;;;;4.60;2.30;;;;;;;-148.56;100.00;61375.16;4932189;28;20039;-27
2021/05/02 01:42:15;;;;;;;2.53;2.05;;;;;;;-148.56;100.00;61375.16;4950654;28;20042;-27
2021/05/02 01:45:39;;;;;;;5.45;2.28;;;;;;;-148.56;100.00;61375.16;4936059;28;20170;-28
2021/05/02 01:49:04;;;;;;;3.83;2.25;;;;;;;-148.56;100.00;61375.16;4933536;28;20034;-29
2021/05/02 01:52:29;;;;;;;2.85;2.25;;;;;;;-148.56;100.00;61375.16;4940114;28;20028;-31
2021/05/02 01:55:53;;;;;;;4.38;2.30;;;;;;;-148.56;100.00;61375.16;4955003;28;20511;-28
2021/05/02 01:59:17;;;;;;;3.25;2.47;;;;;;;-148.56;100.00;61375.16;4932934;28;20035;-27
2021/05/02 02:02:41;;;;;;;6.80;2.70;;;;;;;-148.56;100.00;61375.16;4932091;28;20150;-32
2021/05/02 02:06:05;;;;;;;3.83;2.42;;;;;;;-148.56;100.00;61375.16;4944720;28;20035;-25
2021/05/02 02:09:29;;;;;;;3.70;2.00;;;;;;;-148.56;100.00;61375.16;4942474;28;20027;-27
2021/05/02 02:12:53;;;;;;;12.88;2.58;;;;;;;-148.56;100.00;61375.16;4934920;28;20502;-28
2021/05/02 02:16:17;;;;;;;3.65;2.28;;;;;;;-148.56;100.00;61375.16;4929406;28;20038;-29
2021/05/02 02:19:41;;;;;;;3.28;2.08;;;;;;;-148.56;100.00;61375.16;4942014;28;20074;-28
2021/05/02 02:23:09;;;;;;;4.72;2.28;;;;;;;-148.56;100.00;61375.16;4937025;28;20712;-27
2021/05/02 02:26:36;;;;;;;3.17;1.90;;;;;;;-148.56;100.00;61375.16;4937183;28;20059;-26
2021/05/02 02:30:00;;;;;;;2.85;2.20;;;;;;;-148.56;100.00;61375.16;4944774;28;20699;-26
2021/05/02 02:33:29;;;;;;;2.83;2.17;;;;;;;-148.56;100.00;61375.16;4942163;28;20489;-31
2021/05/02 02:36:53;;;;;;;3.10;2.40;;;;;;;-148.56;100.00;61375.16;4941495;28;20054;-29
2021/05/02 02:40:16;;;;;;;3.33;2.25;;;;;;;-148.56;100.00;61375.16;4951257;28;20114;-28
2021/05/02 02:43:53;;;;;;;3.70;2.00;;;;;;;-148.56;100.00;61375.16;4939568;28;20092;-27
2021/05/02 02:47:18;;;;;;;3.22;1.90;;;;;;;-148.56;100.00;61375.16;4935127;28;22488;-29
2021/05/02 02:50:44;;;;;;;4.50;2.40;;;;;;;-148.56;100.00;61375.16;4936626;28;20090;-31
2021/05/02 02:54:10;;;;;;;3.13;1.95;;;;;;;-148.56;100.00;61375.16;4954120;28;20035;-26
2021/05/02 02:57:40;;;;;;;4.03;2.47;;;;;;;-148.56;100.00;61375.16;4949212;28;20776;-28
2021/05/02 03:01:04;;;;;;;3.65;1.90;;;;;;;-148.56;100.00;61375.16;4942426;28;20117;-28
2021/05/02 03:04:28;;;;;;;2.88;2.05;;;;;;;-148.56;100.00;61375.16;4939072;28;20031;-29
2021/05/02 03:07:52;;;;;;;3.35;1.95;;;;;;;-148.56;100.00;61375.16;4943534;28;20477;-25
2021/05/02 03:11:17;;;;;;;2.70;2.08;;;;;;;-148.56;100.00;61375.16;4941991;28;20109;-27
2021/05/02 03:14:42;;;;;;;4.30;2.03;;;;;;;-148.56;100.00;61375.16;4938813;28;20150;-28
2021/05/02 03:18:07;;;;;;;2.92;1.80;;;;;;;-148.56;100.00;61375.16;4943767;28;20031;-30
2021/05/02 03:21:33;;;;;;;3.17;2.03;;;;;;;-148.56;100.00;61375.16;4947543;28;20029;-30
2021/05/02 03:24:58;;;;;;;2.63;1.95;;;;;;;-148.56;100.00;61375.16;4935618;28;20030;-30
2021/05/02 03:28:24;;;;;;;4.75;1.92;;;;;;;-148.56;100.00;61375.16;4931208;28;20031;-29
2021/05/02 03:31:48;;;;;;;1.90;1.65;;;;;;;-148.56;100.00;61375.16;4947976;28;20126;-29
2021/05/02 03:35:12;;;;;;;7.05;2.00;;;;;;;-148.56;100.00;61375.16;4949759;28;20222;-32
2021/05/02 03:38:41;;;;;;;2.38;1.60;;;;;;;-148.56;100.00;61375.16;4948684;28;20039;-32
2021/05/02 03:42:05;;;;;;;2.42;1.60;;;;;;;-148.56;100.00;61375.16;4941649;28;20031;-30
2021/05/02 03:45:29;;;;;;;2.67;2.00;;;;;;;-148.56;100.00;61375.16;4944601;28;20551;-24
2021/05/02 03:48:53;;;;;;;2.20;1.65;;;;;;;-148.56;100.00;61375.16;4928865;28;20113;-28
2021/05/02 03:52:17;;;;;;;2.10;1.83;;;;;;;-148.56;100.00;61375.16;4938390;28;20070;-28
2021/05/02 03:55:42;;;;;;;2.70;2.03;;;;;;;-148.56;100.00;61375.16;4935892;28;20054;-29
2021/05/02 03:59:08;;;;;;;2.33;1.80;;;;;;;-148.56;100.00;61375.16;4940129;28;20043;-28
2021/05/02 04:02:32;;;;;;;2.13;1.67;;;;;;;-148.56;100.00;61375.16;4931751;28;20031;-30
2021/05/02 04:05:55;;;;;;;2.85;1.80;;;;;;;-148.56;100.00;61375.16;4939957;28;20038;-28
2021/05/02 04:09:19;;;;;;;2.10;1.65;;;;;;;-148.56;100.00;61375.16;4937275;28;20023;-29
2021/05/02 04:12:43;;;;;;;4.10;1.80;;;;;;;-148.56;100.00;61375.16;4944092;28;20035;-29
2021/05/02 04:16:07;;;;;;;2.40;1.40;;;;;;;-148.56;100.00;61375.16;4942029;28;20023;-28
2021/05/02 04:19:32;;;;;;;2.15;1.60;;;;;;;-148.56;100.00;61375.16;4933699;28;20058;-28
2021/05/02 04:22:56;;;;;;;2.20;1.50;;;;;;;-148.56;100.00;61375.16;4937240;28;20940;-29
2021/05/02 04:26:20;;;;;;;2.53;1.60;;;;;;;-148.56;100.00;61375.16;4931666;28;20114;-27
2021/05/02 04:29:44;;;;;;;1.98;1.50;;;;;;;-148.56;100.00;61375.16;4923388;28;20022;-30
2021/05/02 04:33:08;;;;;;;2.47;1.85;;;;;;;-148.56;100.00;61375.16;4935913;28;20119;-31
2021/05/02 04:36:31;;;;;;;1.75;1.60;;;;;;;-148.56;100.00;61375.16;4941837;28;20023;-30
2021/05/02 04:39:55;;;;;;;1.45;1.33;;;;;;;-148.56;100.00;61375.16;4939255;28;20047;-30
2021/05/02 04:43:19;;;;;;;2.05;1.45;;;;;;;-148.56;100.00;61375.16;4948540;28;20572;-30
2021/05/02 04:46:43;;;;;;;1.45;1.35;;;;;;;-148.56;100.00;61375.16;4938522;28;20378;-28
2021/05/02 04:50:08;;;;;;;2.13;1.52;;;;;;;-148.56;100.00;61375.16;4930181;28;20449;-27
2021/05/02 04:53:32;;;;;;;5.68;1.67;;;;;;;-148.56;100.00;61375.16;4952768;28;20496;-31
2021/05/02 04:56:56;;;;;;;1.73;1.50;;;;;;;-148.56;100.00;61375.16;4945659;28;20070;-27
2021/05/02 05:00:20;;;;;;;2.42;1.50;;;;;;;-148.56;100.00;61375.16;4929860;28;20028;-29
2021/05/02 05:03:44;;;;;;;2.65;1.55;;;;;;;-148.56;100.00;61375.16;4938382;28;20031;-28
2021/05/02 05:07:08;;;;;;;1.80;1.45;;;;;;;-148.56;100.00;61375.16;4949196;28;20876;-28
2021/05/02 05:10:32;;;;;;;3.45;1.52;;;;;;;-148.56;100.00;61375.16;4942523;28;20035;-26
2021/05/02 05:13:56;;;;;;;1.83;1.35;;;;;;;-148.56;100.00;61375.16;4939601;28;20031;-29
2021/05/02 05:17:19;;;;;;;2.00;1.48;;;;;;;-148.56;100.00;61375.16;4942876;28;20501;-29
2021/05/02 05:20:43;;;;;;;1.30;1.15;;;;;;;-148.56;100.00;61375.16;4949419;28;20100;-26
2021/05/02 05:24:07;;;;;;;2.33;1.27;;;;;;;-148.56;100.00;61375.16;4949917;28;20031;-26
2021/05/02 05:27:31;;;;;;;2.10;1.52;;;;;;;-148.56;100.00;61375.16;4942377;28;20066;-30
2021/05/02 05:30:55;;;;;;;1.40;1.10;;;;;;;-148.56;100.00;61375.16;4944162;28;20035;-31
2021/05/02 05:34:19;;;;;;;3.13;1.30;;;;;;;-148.56;100.00;61375.16;4936835;28;20031;-28
2021/05/02 05:37:43;;;;;;;1.85;1.27;;;;;;;-148.56;100.00;61375.16;4937441;28;20121;-28
2021/05/02 05:41:07;;;;;;;1.77;1.30;;;;;;;-148.56;100.00;61375.16;4944829;28;20122;-30
2021/05/02 05:44:31;;;;;;;2.03;1.33;;;;;;;-148.56;100.00;61375.16;4938900;28;20639;-32
2021/05/02 05:47:55;;;;;;;1.80;1.27;;;;;;;-148.56;100.00;61375.16;4936578;28;20142;-25
2021/05/02 05:51:19;;;;;;;2.35;1.55;;;;;;;-148.56;100.00;61375.16;4948231;28;20608;-30
2021/05/02 05:54:43;;;;;;;2.10;1.40;;;;;;;-148.56;100.00;61375.16;4948947;28;20050;-28
2021/05/02 05:58:07;;;;;;;1.20;1.10;;;;;;;-148.56;100.00;61375.16;4935204;28;20035;-27
2021/05/02 06:01:31;;;;;;;1.50;1.10;;;;;;;-148.56;100.00;61375.16;4933476;28;20058;-27
2021/05/02 06:04:55;;;;;;;2.38;1.70;;;;;;;-148.56;100.00;61375.16;4942132;28;20114;-27
2021/05/02 06:08:18;;;;;;;1.40;1.15;;;;;;;-148.56;100.00;61375.16;4944012;28;20061;-29
2021/05/02 06:11:44;;;;;;;1.65;1.20;;;;;;;-148.56;100.00;61375.16;4938466;28;20043;-32
2021/05/02 06:15:10;;;;;;;1.95;1.58;;;;;;;-148.56;100.00;61375.16;4943744;28;20031;-28
2021/05/02 06:18:34;;;;;;;2.55;1.20;;;;;;;-148.56;100.00;61375.16;4938834;28;20586;-28
2021/05/02 06:21:57;;;;;;;1.30;1.20;;;;;;;-148.56;100.00;61375.16;4943789;28;20142;-30
2021/05/02 06:25:21;;;;;;;1.52;1.20;;;;;;;-148.56;100.00;61375.16;4937730;28;20485;-29
2021/05/02 06:28:45;;;;;;;3.03;1.58;;;;;;;-148.56;100.00;61375.16;4939138;28;20439;-28
2021/05/02 06:32:09;;;;;;;5.32;1.50;;;;;;;-148.56;100.00;61375.16;4936929;28;20041;-29
2021/05/02 06:35:33;;;;;;;6.47;1.67;;;;;;;-148.56;100.00;61375.16;4945353;28;20039;-26
2021/05/02 06:38:57;;;;;;;3.72;1.67;;;;;;;-148.56;100.00;61375.16;4942474;28;20035;-31
2021/05/02 06:42:21;;;;;;;5.60;1.90;;;;;;;-148.56;100.00;61375.16;4935876;28;20799;-28
2021/05/02 06:45:45;;;;;;;8.40;2.30;;;;;;;-148.56;100.00;61375.16;4931092;28;20054;-28
2021/05/02 06:49:09;;;;;;;6.95;2.10;;;;;;;-148.56;100.00;61375.16;4929531;28;20031;-31
2021/05/02 06:52:33;;;;;;;8.32;2.00;;;;;;;-148.56;100.00;61375.16;4929393;28;20039;-28
2021/05/02 06:55:57;;;;;;;7.55;1.90;;;;;;;-148.56;100.00;61375.16;4929332;28;20039;-32
2021/05/02 06:59:21;;;;;;;7.95;3.60;;;;;;;-148.56;100.00;61375.16;4935248;28;20027;-26
2021/05/02 07:02:45;;;;;;;6.22;3.58;;;;;;;-148.56;100.00;61375.16;4930827;28;20688;-29
2021/05/02 07:06:09;;;;;;;4.95;3.80;;;;;;;-148.56;100.00;61375.16;4930409;28;20039;-29
2021/05/02 07:09:33;;;;;;;7.32;5.07;;;;;;;-148.56;100.00;61375.16;4932593;28;20034;-31
2021/05/02 07:12:57;;;;;;;9.05;3.95;;;;;;;-148.56;100.00;61375.16;4929100;28;20035;-30
2021/05/02 07:16:22;;;;;;;8.05;3.97;;;;;;;-148.56;100.00;61375.16;4934314;28;20035;-32
2021/05/02 07:19:46;;;;;;;4.93;3.78;;;;;;;-148.56;100.00;61375.16;4933086;28;20046;-30
2021/05/02 07:23:09;;;;;;;7.45;4.03;;;;;;;-148.56;100.00;61375.16;4933546;28;20063;-27
2021/05/02 07:26:33;;;;;;;9.25;3.90;;;;;;;-148.56;100.00;61375.16;4935063;28;20035;-30
2021/05/02 07:29:57;;;;;;;7.20;3.78;;;;;;;-148.56;100.00;61375.16;4932272;28;20528;-28
2021/05/02 07:33:23;;;;;;;6.35;4.30;;;;;;;-148.56;100.00;61375.16;4941715;28;20039;-26
2021/05/02 07:36:47;;;;;;;6.93;3.88;;;;;;;-148.56;100.00;61375.16;4931354;28;20027;-31
2021/05/02 07:40:13;;;;;;;5.97;3.72;;;;;;;-148.56;100.00;61375.16;4930651;28;20030;-27
2021/05/02 07:43:39;;;;;;;6.68;4.15;;;;;;;-148.56;100.00;61375.16;4938464;28;20486;-27
2021/05/02 07:47:03;;;;;;;6.25;4.10;;;;;;;-148.56;100.00;61375.16;4934913;28;20892;-30
2021/05/02 07:50:27;;;;;;;5.55;4.05;;;;;;;-148.56;100.00;61375.16;4931480;28;20031;-28
2021/05/02 07:53:51;;;;;;;4.50;3.60;;;;;;;-148.56;100.00;61375.16;4932464;28;20030;-32
2021/05/02 07:57:15;;;;;;;5.78;3.50;;;;;;;-148.56;100.00;61375.16;4930914;28;20063;-32
2021/05/02 08:00:39;;;;;;;5.07;3.92;;;;;;;-148.56;100.00;61375.16;4933863;28;20035;-31
2021/05/02 08:04:03;;;;;;;5.05;3.60;;;;;;;-148.56;100.00;61375.16;4935327;28;20042;-31
2021/05/02 08:07:27;;;;;;;5.22;4.13;;;;;;;-148.56;100.00;61375.16;4932584;28;20066;-31
2021/05/02 08:10:51;;;;;;;6.97;3.90;;;;;;;-148.56;100.00;61375.16;4930760;28;20513;-29
2021/05/02 08:14:15;;;;;;;5.07;3.92;;;;;;;-148.56;100.00;61375.16;4931430;28;20485;-31
2021/05/02 08:17:39;;;;;;;4.28;3.65;;;;;;;-148.56;100.00;61375.16;4929357;28;21009;-32
2021/05/02 08:21:07;;;;;;;4.78;3.75;;;;;;;-148.56;100.00;61375.16;4929690;28;20565;-27
2021/05/02 08:24:31;;;;;;;5.93;3.90;;;;;;;-148.56;100.00;61375.16;4928847;28;20466;-31
2021/05/02 08:27:55;;;;;;;5.95;4.45;;;;;;;-148.56;100.00;61375.16;4593620;28;10000984;-32
2021/05/02 08:31:19;;;;;;;5.40;4.20;;;;;;;-148.56;100.00;61375.16;4941007;28;20056;-27
2021/05/02 08:34:42;;;;;;;8.10;4.40;;;;;;;-148.56;100.00;61375.16;4948118;28;20121;-30
2021/05/02 08:38:06;;;;;;;4.93;3.70;;;;;;;-148.56;100.00;61375.16;4948232;28;20046;-30
2021/05/02 08:41:30;;;;;;;13.65;4.10;;;;;;;-148.56;100.00;61375.16;4972458;28;20066;-29
2021/05/02 08:44:54;;;;;;;7.85;4.35;;;;;;;-148.56;100.00;61375.16;4952856;28;20030;-31
2021/05/02 08:48:24;;;;;;;7.55;4.70;;;;;;;-148.56;100.00;61375.16;4963544;28;20647;-32
2021/05/02 08:51:48;;;;;;;8.52;4.55;;;;;;;-148.56;100.00;61375.16;4953929;28;20117;-28
2021/05/02 08:55:12;;;;;;;8.85;4.85;;;;;;;-148.56;100.00;61375.16;4962134;28;20030;-32
2021/05/02 08:58:36;;;;;;;10.40;4.20;;;;;;;-148.56;100.00;61375.16;4969049;28;20038;-31
2021/05/02 09:02:01;;;;;;;14.00;7.72;;;;;;;-148.56;100.00;61375.16;4962410;28;20038;-30
2021/05/02 09:05:25;;;;;;;8.52;7.00;;;;;;;-148.56;100.00;61375.16;4959758;28;20118;-31
2021/05/02 09:08:50;;;;;;;10.30;6.20;;;;;;;-148.56;100.00;61375.16;4963431;28;20022;-30
2021/05/02 09:12:20;;;;;;;5.75;4.10;;;;;;;-148.56;100.00;61375.16;4956706;28;20030;-30
2021/05/02 09:15:46;;;;;;;6.13;3.10;;;;;;;-148.56;100.00;61375.16;4957895;28;20292;-31
2021/05/02 09:19:10;;;;;;;4.57;2.92;;;;;;;-148.56;100.00;61375.16;4955229;28;20468;-33
2021/05/02 09:22:34;;;;;;;4.60;2.80;;;;;;;-148.56;100.00;61375.16;4955382;28;20117;-29
2021/05/02 09:25:59;;;;;;;3.08;2.33;;;;;;;-148.56;100.00;61375.16;4958315;28;20069;-29
2021/05/02 09:29:43;;;;;;;3.88;2.50;;;;;;;-148.56;100.00;61375.16;4960934;28;20069;-33
2021/05/02 09:33:08;;;;;;;12.02;2.20;;;;;;;-148.56;100.00;61375.16;4957713;28;20513;-28
2021/05/02 09:36:32;;;;;;;8.90;2.10;;;;;;;-148.56;100.00;61375.16;4951759;28;20033;-30
2021/05/02 09:39:56;;;;;;;7.60;2.15;;;;;;;-148.56;100.00;61375.16;4955863;28;21028;-29
2021/05/02 09:43:43;;;;;;;4.70;2.20;;;;;;;-148.56;100.00;61375.16;4954888;28;20547;-32
2021/05/02 09:47:19;;;;;;;6.75;2.45;;;;;;;-148.56;100.00;61375.16;4961384;28;20050;-27
2021/05/02 09:51:11;;;;;;;5.88;2.15;;;;;;;-148.56;100.00;61375.16;4957295;28;20054;-27
2021/05/02 09:54:35;;;;;;;7.38;2.50;;;;;;;-148.56;100.00;61375.16;4945412;28;20030;-31
2021/05/02 09:58:07;;;;;;;13.70;2.78;;;;;;;-148.56;100.00;61375.16;4951373;28;20050;-29
2021/05/02 10:01:32;;;;;;;12.18;2.70;;;;;;;-148.56;100.00;61375.16;4963315;28;20126;-31
2021/05/02 10:04:57;;;;;;;8.32;2.20;;;;;;;-148.56;100.00;61375.16;4981661;28;20037;-32
2021/05/02 10:08:26;;;;;;;5.32;2.35;;;;;;;-148.56;100.00;61375.16;4972393;28;20054;-29
2021/05/02 10:11:50;;;;;;;6.47;2.13;;;;;;;-148.56;100.00;61375.16;4962533;28;20019;-29
2021/05/02 10:15:14;;;;;;;5.22;2.20;;;;;;;-148.56;100.00;61375.16;4965432;28;20038;-30
2021/05/02 10:18:40;;;;;;;6.22;2.28;;;;;;;-148.56;100.00;61375.16;4951275;28;20126;-27
2021/05/02 10:22:04;;;;;;;2.33;1.80;;;;;;;-148.56;100.00;61375.16;4967227;28;20798;-30
2021/05/02 10:25:28;;;;;;;5.85;1.90;;;;;;;-148.56;100.00;61375.16;4962689;28;20065;-29
2021/05/02 10:28:51;;;;;;;4.50;2.05;;;;;;;-148.56;100.00;61375.16;4956691;28;20519;-31
2021/05/02 10:32:16;;;;;;;7.55;2.10;;;;;;;-148.56;100.00;61375.16;4959583;28;20150;-30
2021/05/02 10:35:43;;;;;;;3.83;2.00;;;;;;;-148.56;100.00;61375.16;4978137;28;20042;-34
2021/05/02 10:39:11;;;;;;;3.28;1.85;;;;;;;-148.56;100.00;61375.16;4965999;28;20034;-26
2021/05/02 10:42:39;;;;;;;3.78;1.63;;;;;;;-148.56;100.00;61375.16;4960669;28;20037;-32
2021/05/02 10:46:57;;;;;;;3.83;2.08;;;;;;;-148.56;100.00;61375.16;4959735;28;20027;-32
2021/05/02 10:50:27;;;;;;;3.15;1.77;;;;;;;-148.56;100.00;61375.16;4939852;28;20681;-29
2021/05/02 10:54:04;;;;;;;2.65;1.70;;;;;;;-148.56;100.00;61375.16;4966128;28;20030;-31
2021/05/02 10:57:41;;;;;;;3.20;1.70;;;;;;;-148.56;100.00;61375.16;4963774;28;20105;-30
2021/05/02 11:01:10;;;;;;;2.47;1.65;;;;;;;-148.56;100.00;61375.16;4959692;28;20077;-30
2021/05/02 11:04:52;;;;;;;4.45;1.63;;;;;;;-148.56;100.00;61375.16;4967682;28;20030;-35
2021/05/02 11:08:35;;;;;;;4.20;1.60;;;;;;;-148.56;100.00;61375.16;4967663;28;20125;-27
2021/05/02 11:11:59;;;;;;;2.72;1.48;;;;;;;-148.56;100.00;61375.16;4934565;28;20121;-29
2021/05/02 11:15:26;;;;;;;4.93;1.85;;;;;;;-148.56;100.00;61375.16;4957367;28;20045;-30
2021/05/02 11:18:51;;;;;;;2.85;1.63;;;;;;;-148.56;100.00;61375.16;4966572;28;20055;-32
2021/05/02 11:22:17;;;;;;;1.83;1.38;;;;;;;-148.56;100.00;61375.16;4963622;28;20035;-31
2021/05/02 11:25:46;;;;;;;2.40;1.40;;;;;;;-148.56;100.00;61375.16;4967056;28;20038;-27
2021/05/02 11:29:19;;;;;;;2.40;1.50;;;;;;;-148.56;100.00;61375.16;4957308;28;20366;-33
2021/05/02 11:32:43;;;;;;;3.03;1.40;;;;;;;-148.56;100.00;61375.16;4957257;28;20129;-35
2021/05/02 11:36:09;;;;;;;2.05;1.55;;;;;;;-148.56;100.00;61375.16;4967955;28;20732;-33
2021/05/02 11:39:35;;;;;;;2.78;1.60;;;;;;;-148.56;100.00;61375.16;4980945;28;20113;-33
2021/05/02 11:43:03;;;;;;;4.15;1.70;;;;;;;-148.56;100.00;61375.16;4962601;28;20197;-31
2021/05/02 11:46:28;;;;;;;1.92;1.50;;;;;;;-148.56;100.00;61375.16;4959296;28;20533;-32
2021/05/02 11:49:52;;;;;;;2.53;1.50;;;;;;;-148.56;100.00;61375.16;4964139;28;20037;-30
2021/05/02 11:53:34;;;;;;;3.00;1.63;;;;;;;-148.56;100.00;61375.16;4964399;28;21872;-29
2021/05/02 11:56:58;;;;;;;1.20;1.10;;;;;;;-148.56;100.00;61375.16;4960842;28;20030;-33
2021/05/02 12:00:35;;;;;;;2.10;1.40;;;;;;;-148.56;100.00;61375.16;4960111;28;20113;-29
2021/05/02 12:04:05;;;;;;;1.80;1.40;;;;;;;-148.56;100.00;61375.16;4974793;28;20121;-30
2021/05/02 12:07:31;;;;;;;2.47;1.55;;;;;;;-148.56;100.00;61375.16;4962288;28;20023;-29
2021/05/02 12:10:59;;;;;;;2.25;1.38;;;;;;;-148.56;100.00;61375.16;4963703;28;20047;-33
2021/05/02 12:14:36;;;;;;;2.08;1.35;;;;;;;-148.56;100.00;61375.16;4959522;28;20065;-31
2021/05/02 12:18:00;;;;;;;1.30;1.20;;;;;;;-148.56;100.00;61375.16;4957198;28;20565;-33
2021/05/02 12:21:37;;;;;;;1.65;1.20;;;;;;;-148.56;100.00;61375.16;4961517;28;20317;-29
2021/05/02 12:25:03;;;;;;;1.98;1.48;;;;;;;-148.56;100.00;61375.16;4967519;28;20038;-32
2021/05/02 12:28:27;;;;;;;1.88;1.30;;;;;;;-148.56;100.00;61375.16;4966223;28;20803;-30
2021/05/02 12:31:51;;;;;;;2.10;1.35;;;;;;;-148.56;100.00;61375.16;4956856;28;20089;-31
2021/05/02 12:35:15;;;;;;;1.17;1.00;;;;;;;-148.56;100.00;61375.16;4964161;28;20121;-28
2021/05/02 12:38:40;;;;;;;1.85;1.20;;;;;;;-148.56;100.00;61375.16;4955506;28;20073;-33
2021/05/02 12:42:05;;;;;;;1.85;1.30;;;;;;;-148.56;100.00;61375.16;4960082;28;20031;-31
2021/05/02 12:45:40;;;;;;;3.20;1.13;;;;;;;-148.56;100.00;61375.16;4965411;28;20112;-30
2021/05/02 12:49:11;;;;;;;2.15;1.00;;;;;;;-148.56;100.00;61375.16;4960467;28;20027;-30
2021/05/02 12:52:36;;;;;;;1.48;1.20;;;;;;;-148.56;100.00;61375.16;4961225;28;20026;-27
2021/05/02 12:56:20;;;;;;;1.50;1.15;;;;;;;-148.56;100.00;61375.16;4968568;28;20034;-30
2021/05/02 12:59:49;;;;;;;2.17;1.20;;;;;;;-148.56;100.00;61375.16;4956419;28;20133;-30
2021/05/02 13:03:53;;;;;;;1.77;1.02;;;;;;;-148.56;100.00;61375.16;4964835;28;20031;-29
2021/05/02 13:07:33;;;;;;;1.10;0.98;;;;;;;-148.56;100.00;61375.16;4944772;28;20031;-27
2021/05/02 13:10:57;;;;;;;1.10;1.00;;;;;;;-148.56;100.00;61375.16;4966424;28;20220;-30
2021/05/02 13:14:26;;;;;;;0.80;0.80;;;;;;;-148.56;100.00;61375.16;4973187;28;20030;-31
2021/05/02 13:17:56;;;;;;;1.33;0.98;;;;;;;-148.56;100.00;61375.16;4954872;28;20546;-30
2021/05/02 13:21:24;;;;;;;1.23;1.00;;;;;;;-148.56;100.00;61375.16;4963762;28;20037;-29
2021/05/02 13:25:06;;;;;;;1.00;0.90;;;;;;;-148.56;100.00;61375.16;4961441;28;20027;-30
2021/05/02 13:28:32;;;;;;;;;;;;;;;-148.56;100.00;61375.16;4959536;28;20046;-31
2021/05/02 13:31:57;;;;;;;1.10;0.80;;;;;;;-148.56;100.00;61375.16;4950024;28;20449;-34
2021/05/02 13:35:27;;;;;;;1.73;0.90;;;;;;;-148.56;100.00;61375.16;4955989;28;20042;-28
2021/05/02 13:38:51;;;;;;;0.90;0.82;;;;;;;-148.56;100.00;61375.16;4953034;28;20104;-36
2021/05/02 13:42:15;;;;;;;1.52;1.20;;;;;;;-148.56;100.00;61375.16;4957445;28;20038;-29
2021/05/02 13:45:41;;;;;;;2.00;1.00;;;;;;;-148.56;100.00;61375.16;4955960;28;20768;-30
2021/05/02 13:49:06;;;;;;;0.85;0.85;;;;;;;-148.56;100.00;61375.16;4952589;28;20089;-34
2021/05/02 13:52:30;;;;;;;1.38;1.08;;;;;;;-148.56;100.00;61375.16;4951046;28;20086;-32
2021/05/02 13:55:54;;;;;;;6.90;1.10;;;;;;;-148.56;100.00;61375.16;4965643;28;20030;-32
2021/05/02 13:59:19;;;;;;;2.95;1.00;;;;;;;-148.56;100.00;61375.16;4954686;28;20050;-30
2021/05/02 14:02:44;;;;;;;1.70;0.93;;;;;;;-148.56;100.00;61375.16;4958207;28;20672;-30
2021/05/02 14:06:12;;;;;;;1.70;1.15;;;;;;;-148.56;100.00;61375.16;4943519;28;20646;-25
2021/05/02 14:09:36;;;;;;;4.70;1.10;;;;;;;-148.56;100.00;61375.16;4956667;28;20035;-28
2021/05/02 14:13:00;;;;;;;112.72;46.95;;;;;;;-148.56;100.00;61375.16;4947641;28;20034;-31
2021/05/02 14:16:25;;;;;;;81.38;36.53;;;;;;;-148.56;100.00;61375.16;4949676;28;20037;-31
2021/05/02 14:19:49;;;;;;;105.50;44.47;;;;;;;-148.56;100.00;61375.16;4960457;28;20048;-30
2021/05/02 14:23:13;;;;;;;121.53;49.58;;;;;;;-148.56;100.00;61375.16;4963292;28;20031;-31
2021/05/02 14:26:37;;;;;;;180.45;68.65;;;;;;;-148.56;100.00;61375.16;4958286;28;20051;-29
2021/05/02 14:30:01;;;;;;;169.18;68.65;;;;;;;-148.56;100.00;61375.16;4956340;28;20034;-29
2021/05/02 14:33:25;;;;;;;217.40;91.05;;;;;;;-148.56;100.00;61375.16;4958767;28;20883;-25
2021/05/02 14:36:50;;;;;;;228.60;94.03;;;;;;;-148.56;100.00;61375.16;4963538;28;20035;-29
2021/05/02 14:40:14;;;;;;;241.65;96.95;;;;;;;-148.56;100.00;61375.16;4961685;28;20026;-29
2021/05/02 14:43:40;;;;;;;231.05;96.40;;;;;;;-148.56;100.00;61375.16;4960502;28;20543;-31
2021/05/02 14:47:03;;;;;;;359.25;144.32;;;;;;;-148.56;100.00;61375.16;4947620;28;20070;-30
2021/05/02 14:50:28;;;;;;;154.13;58.40;;;;;;;-148.56;100.00;61375.16;4942850;28;20602;-31
2021/05/02 14:53:52;;;;;;;113.32;48.72;;;;;;;-148.56;100.00;61375.16;4948056;28;20042;-30
2021/05/02 14:57:16;;;;;;;165.25;65.93;;;;;;;-148.56;100.00;61375.16;4947426;28;20113;-27
2021/05/02 15:00:41;;;;;;;150.32;62.03;;;;;;;-148.56;100.00;61375.16;4952200;28;20059;-32
2021/05/02 15:04:05;;;;;;;103.75;43.72;;;;;;;-148.56;100.00;61375.16;4952312;28;20031;-30
2021/05/02 15:07:31;;;;;;;74.53;31.92;;;;;;;-148.56;100.00;61375.16;4951774;28;20034;-31
2021/05/02 15:10:56;;;;;;;56.13;26.92;;;;;;;-148.56;100.00;61375.16;4945250;28;20042;-30
2021/05/02 15:14:20;;;;;;;40.05;20.80;;;;;;;-148.56;100.00;61375.16;4947459;28;20980;-30
2021/05/02 15:17:44;;;;;;;31.25;16.85;;;;;;;-148.56;100.00;61375.16;4955434;28;20401;-30
2021/05/02 15:21:09;;;;;;;25.98;13.80;;;;;;;-148.56;100.00;61375.16;4951470;28;20863;-34
2021/05/02 15:24:33;;;;;;;34.58;14.50;;;;;;;-148.56;100.00;61375.16;4950940;28;20042;-31
2021/05/02 15:27:57;;;;;;;31.35;15.00;;;;;;;-148.56;100.00;61375.16;4954190;28;20030;-33
2021/05/02 15:31:22;;;;;;;42.42;16.23;;;;;;;-148.56;100.00;61375.16;4956313;28;20149;-30
2021/05/02 15:34:48;;;;;;;35.50;16.27;;;;;;;-148.56;100.00;61375.16;4953398;28;20042;-27